M/V Alferdawi-1 — XUEH7 — position and weather

sailwx.info

Track history (hours):
 
Tides and Currents Weather Stations Pressure Air Temp Water Temp Dewpoint Dewpoint Depression Visibility Wind Speed Wind Dir Waves Ship Positions

M/V Alferdawi-1

Last reported at 2015-Jul-21 03:32 UTC. Time now 2015-Aug-03 13:14 UTC.
Position N 40°58' E 028°60'.
Warning: this ship's position is 13 days out of date.

Length 72 m; draft 3.6 m.

Type: Cargo ship. MMSI: 515640000.

Date/timePositionNaut miles runAvg speedWind from/ knotsBaromVisibWave heightAir tempDewpointWater temp
2015-Jul-21 03:32N 40°58' E 028°60'4 3.8
2015-Jul-21 02:33N 40°56' E 028°55'2 0.1
2015-Jul-20 08:24N 40°56' E 028°57'  
2015-Jul-11 21:21N 33°56' E 034°30'9 9.1
2015-Jul-11 20:21N 33°52' E 034°21'7 9.2
2015-Jul-11 19:33N 33°47' E 034°14'9 9.1
2015-Jul-11 18:33N 33°42' E 034°05'30 8.8
2015-Jul-11 15:10N 33°22' E 033°38'6 8.9
2015-Jul-11 14:32N 33°18' E 033°33'9 9.0
2015-Jul-11 13:33N 33°12' E 033°25'19 9.2
2015-Jul-11 11:30N 32°58' E 033°10'9 9.1
2015-Jul-11 10:33N 32°50' E 033°07'12 9.2
2015-Jul-11 09:13N 32°38' E 033°03'6 9.0
2015-Jul-11 08:30N 32°32' E 033°00'9 9.0
2015-Jul-11 07:33N 32°24' E 032°58'  
Track history (hours):
 
Tides and Currents Weather Stations Pressure Air Temp Water Temp Dewpoint Dewpoint Depression Visibility Wind Speed Wind Dir Waves Ship Positions

M/V Alferdawi-1

Last reported at 2015-Jul-21 03:32 UTC. Time now 2015-Aug-03 13:14 UTC.
Position N 40°58' E 028°60'.
Warning: this ship's position is 13 days out of date.

Length 72 m; draft 3.6 m.

Type: Cargo ship. MMSI: 515640000.

Date/timePositionNaut miles runAvg speedWind from/ knotsBaromVisibWave heightAir tempDewpointWater temp
2015-Jul-21 03:32N 40°58' E 028°60'4 3.8
2015-Jul-21 02:33N 40°56' E 028°55'2 0.1
2015-Jul-20 08:24N 40°56' E 028°57'  
2015-Jul-11 21:21N 33°56' E 034°30'9 9.1
2015-Jul-11 20:21N 33°52' E 034°21'7 9.2
2015-Jul-11 19:33N 33°47' E 034°14'9 9.1
2015-Jul-11 18:33N 33°42' E 034°05'30 8.8
2015-Jul-11 15:10N 33°22' E 033°38'6 8.9
2015-Jul-11 14:32N 33°18' E 033°33'9 9.0
2015-Jul-11 13:33N 33°12' E 033°25'19 9.2
2015-Jul-11 11:30N 32°58' E 033°10'9 9.1
2015-Jul-11 10:33N 32°50' E 033°07'12 9.2
2015-Jul-11 09:13N 32°38' E 033°03'6 9.0
2015-Jul-11 08:30N 32°32' E 033°00'9 9.0
2015-Jul-11 07:33N 32°24' E 032°58'  

Dump ship's entire track history